Rostein — LLHI — position and weather

sailwx.info

Track history (hours):
 
Tides and Currents Weather Stations Pressure Air Temp Water Temp Dewpoint Dewpoint Depression Visibility Wind Speed Wind Dir Waves Ship Positions

Rostein

Last reported at 2017-Apr-26 05:30 UTC. Time now 2017-Apr-26 05:52 UTC.
Position N 69°34' E 018°46'.

Length 57 m; draft 4 m.

Type: Cargo ship. MMSI: 257210000.

Date/timePositionNaut miles runAvg speedWind from/ knotsBaromVisibWave heightAir tempDewpointWater temp
2017-Apr-26 05:30N 69°34' E 018°46'5 9.7
2017-Apr-26 05:00N 69°32' E 018°32'510.1
2017-Apr-26 04:30N 69°30' E 018°19'510.0
2017-Apr-26 04:00N 69°28' E 018°07'510.3
2017-Apr-26 03:30N 69°22' E 018°05'5 9.8
2017-Apr-26 03:00N 69°18' E 017°58'5 9.3
2017-Apr-26 02:30N 69°14' E 017°58'4 7.9
2017-Apr-26 02:00N 69°10' E 017°56'510.1
2017-Apr-26 01:30N 69°09' E 017°42'1 2.5
2017-Apr-26 01:00N 69°09' E 017°39'0 0.0
2017-Apr-26 00:30N 69°09' E 017°39'0 0.0
2017-Apr-26 00:00N 69°09' E 017°39'1 1.8
2017-Apr-25 23:30N 69°09' E 017°41'612.3
2017-Apr-25 23:00N 69°10' E 017°58'510.5
2017-Apr-25 22:30N 69°16' E 017°58'611.5
2017-Apr-25 22:00N 69°21' E 018°05'612.2
2017-Apr-25 21:30N 69°27' E 018°07'611.7
2017-Apr-25 21:00N 69°30' E 018°20'612.3
2017-Apr-25 20:30N 69°33' E 018°37'510.6
2017-Apr-25 20:00N 69°35' E 018°50'611.5
2017-Apr-25 19:30N 69°40' E 018°60'612.0
2017-Apr-25 19:00N 69°45' E 019°08'612.1
2017-Apr-25 18:30N 69°48' E 019°23'612.2
2017-Apr-25 18:00N 69°50' E 019°39'612.3
2017-Apr-25 17:30N 69°54' E 019°54'612.3
2017-Apr-25 17:00N 69°58' E 020°08'611.9
2017-Apr-25 16:30N 70°00' E 020°24'612.3
2017-Apr-25 16:00N 70°02' E 020°41'612.3
2017-Apr-25 15:29N 70°04' E 020°58'2 4.0
2017-Apr-25 15:00N 70°02' E 020°59'0 0.0
2017-Apr-25 14:30N 70°02' E 020°59'0 0.0
2017-Apr-25 13:30N 70°02' E 020°59'0 0.0
2017-Apr-25 13:00N 70°02' E 020°59'1 2.8
2017-Apr-25 12:30N 70°03' E 021°01'3 6.9
2017-Apr-25 12:00N 70°03' E 020°51'4 8.4
2017-Apr-25 11:30N 70°02' E 020°40'4 8.2
2017-Apr-25 11:00N 70°00' E 020°28'510.1
2017-Apr-25 10:29N 69°59' E 020°14'510.2
2017-Apr-25 10:00N 69°56' E 020°02'510.0
2017-Apr-25 09:30N 69°53' E 019°51'5 9.9
2017-Apr-25 09:00N 69°50' E 019°38'510.1
2017-Apr-25 08:30N 69°48' E 019°25'510.3
2017-Apr-25 08:00N 69°46' E 019°11'510.0
2017-Apr-25 07:30N 69°42' E 019°03'510.6
2017-Apr-25 07:00N 69°37' E 018°55'511.1
2017-Apr-25 06:30N 69°33' E 018°44'611.0
2017-Apr-25 06:00N 69°32' E 018°29'510.3
2017-Apr-25 05:30N 69°30' E 018°16'4 8.8
2017-Apr-25 05:00N 69°26' E 018°07'510.2
2017-Apr-25 04:30N 69°21' E 018°06'5 9.7
2017-Apr-25 04:00N 69°17' E 017°58'5 9.4
2017-Apr-25 03:30N 69°13' E 018°00'4 7.9
2017-Apr-25 03:00N 69°09' E 017°53'510.1
2017-Apr-25 02:30N 69°09' E 017°39'0 0.8
2017-Apr-25 02:00N 69°09' E 017°39'0 0.0
2017-Apr-25 01:30N 69°09' E 017°39'0 0.0
2017-Apr-25 01:00N 69°09' E 017°39'2 3.1
2017-Apr-25 00:30N 69°09' E 017°43'611.3
2017-Apr-25 00:00N 69°10' E 017°58'5 9.9
2017-Apr-24 23:30N 69°15' E 017°58'510.5
2017-Apr-24 22:59N 69°20' E 018°03'510.7
2017-Apr-24 22:30N 69°25' E 018°07'510.5
2017-Apr-24 22:00N 69°30' E 018°14'611.5
2017-Apr-24 21:30N 69°32' E 018°30'510.4
2017-Apr-24 21:00N 69°33' E 018°44'5 9.9
2017-Apr-24 20:30N 69°37' E 018°54'510.9
2017-Apr-24 20:00N 69°42' E 019°02'611.3
2017-Apr-24 19:30N 69°46' E 019°12'611.7
2017-Apr-24 19:00N 69°49' E 019°27'611.9
2017-Apr-24 18:30N 69°51' E 019°43'611.8
2017-Apr-24 18:00N 69°55' E 019°56'611.8
2017-Apr-24 17:29N 69°58' E 020°11'611.9
2017-Apr-24 17:00N 70°00' E 020°26'612.1
2017-Apr-24 16:30N 70°02' E 020°43'612.0
2017-Apr-24 16:00N 70°04' E 020°60'2 3.9
2017-Apr-24 15:30N 70°02' E 020°59'0 0.1
2017-Apr-24 15:00N 70°02' E 020°59'0 0.0
2017-Apr-24 14:30N 70°02' E 020°59'6 6.4
2017-Apr-24 13:30N 70°02' E 020°40'510.1
2017-Apr-24 13:00N 69°60' E 020°27'510.0
2017-Apr-24 12:29N 69°58' E 020°13'510.3
2017-Apr-24 12:00N 69°55' E 020°01'510.3
2017-Apr-24 11:29N 69°52' E 019°49'510.2
2017-Apr-24 10:59N 69°50' E 019°36'510.0
2017-Apr-24 10:30N 69°48' E 019°22'510.0
2017-Apr-24 09:59N 69°47' E 019°08'5 9.6
2017-Apr-24 09:30N 69°50' E 018°58'510.4
2017-Apr-24 08:59N 69°53' E 018°46'4 7.0
2017-Apr-24 08:29N 69°51' E 018°38'4 8.0
2017-Apr-24 08:00N 69°49' E 018°30'5 9.4
2017-Apr-24 07:30N 69°47' E 018°17'5 9.0
2017-Apr-24 07:00N 69°43' E 018°11'1 2.5
2017-Apr-24 06:30N 69°42' E 018°10'0 0.0
2017-Apr-24 06:00N 69°42' E 018°10'3 5.7
2017-Apr-24 05:30N 69°44' E 018°16'510.3
2017-Apr-24 05:00N 69°48' E 018°23'611.2
2017-Apr-24 04:30N 69°50' E 018°38'4 8.4
2017-Apr-24 04:00N 69°54' E 018°45'612.3
2017-Apr-24 03:30N 69°50' E 018°59'611.1
2017-Apr-24 03:00N 69°47' E 019°13'612.1
2017-Apr-24 02:30N 69°49' E 019°30'612.1
2017-Apr-24 02:00N 69°51' E 019°46'611.8
2017-Apr-24 01:30N 69°55' E 019°59'611.9
2017-Apr-24 01:00N 69°59' E 020°12'611.9
2017-Apr-24 00:30N 70°01' E 020°29'611.9
2017-Apr-24 00:00N 70°02' E 020°46'511.2
2017-Apr-23 23:30N 70°06' E 020°58'611.9
2017-Apr-23 23:00N 70°12' E 021°05'611.3
2017-Apr-23 22:30N 70°16' E 021°16'611.5
2017-Apr-23 22:00N 70°20' E 021°29'611.4
2017-Apr-23 21:30N 70°24' E 021°41'611.4
2017-Apr-23 21:00N 70°22' E 021°57'611.9
2017-Apr-23 20:30N 70°19' E 022°13'612.0
2017-Apr-23 20:00N 70°16' E 022°29'612.0
2017-Apr-23 19:30N 70°14' E 022°46'612.0
2017-Apr-23 19:00N 70°14' E 023°03'5 9.7
2017-Apr-23 18:30N 70°14' E 023°17'0 0.0
2017-Apr-23 18:00N 70°14' E 023°17'0 0.5
2017-Apr-23 17:30N 70°14' E 023°17'510.1
2017-Apr-23 17:00N 70°17' E 023°04'510.0
2017-Apr-23 16:30N 70°21' E 022°55'510.0
2017-Apr-23 16:01N 70°25' E 022°47'510.7
2017-Apr-23 15:30N 70°30' E 022°55'510.4
2017-Apr-23 15:00N 70°34' E 023°05'1010.3
2017-Apr-23 14:00N 70°41' E 023°26'510.1
2017-Apr-23 13:30N 70°45' E 023°36'510.2
2017-Apr-23 13:00N 70°48' E 023°48'510.1
2017-Apr-23 12:29N 70°51' E 024°00'5 9.8
2017-Apr-23 12:00N 70°55' E 024°11'510.0
2017-Apr-23 11:30N 70°58' E 024°22'5 9.9
2017-Apr-23 11:00N 71°02' E 024°33'5 9.4
2017-Apr-23 10:30N 71°01' E 024°47'5 9.9
2017-Apr-23 10:00N 70°59' E 025°02'510.3
2017-Apr-23 09:30N 70°59' E 025°18'4 8.7
2017-Apr-23 09:00N 70°57' E 025°29'4 8.7
2017-Apr-23 08:29N 70°56' E 025°42'510.3
2017-Apr-23 08:00N 70°57' E 025°58'510.4
2017-Apr-23 07:30N 70°58' E 026°13'510.4
2017-Apr-23 06:59N 70°58' E 026°30'5 9.7
2017-Apr-23 06:30N 70°58' E 026°44'510.5
2017-Apr-23 06:00N 70°53' E 026°48'510.3
2017-Apr-23 05:30N 70°47' E 026°48'510.6
2017-Apr-23 05:00N 70°42' E 026°46'510.5
2017-Apr-23 04:30N 70°37' E 026°45'9 2.1
2017-Apr-23 00:06N 70°28' E 026°43'5 7.2
2017-Apr-22 23:25N 70°33' E 026°43'512.0
2017-Apr-22 23:00N 70°38' E 026°45'612.1
2017-Apr-22 22:30N 70°44' E 026°47'612.0
2017-Apr-22 21:59N 70°50' E 026°49'612.0
2017-Apr-22 21:30N 70°56' E 026°46'5 9.7
2017-Apr-22 21:00N 70°59' E 026°34'611.7
2017-Apr-22 20:30N 70°58' E 026°16'611.6
2017-Apr-22 19:59N 70°57' E 025°58'611.9
2017-Apr-22 19:30N 70°56' E 025°41'610.9
2017-Apr-22 18:59N 70°58' E 025°25'611.8
2017-Apr-22 18:30N 70°59' E 025°08'611.4
2017-Apr-22 18:00N 71°00' E 024°50'611.2
2017-Apr-22 17:30N 71°02' E 024°34'611.3
2017-Apr-22 17:00N 70°58' E 024°21'611.2
2017-Apr-22 16:30N 70°54' E 024°08'611.7
2017-Apr-22 15:59N 70°50' E 023°54'612.1
2017-Apr-22 15:30N 70°46' E 023°41'611.8
2017-Apr-22 15:00N 70°42' E 023°29'612.1
2017-Apr-22 14:30N 70°37' E 023°17'1212.3
2017-Apr-22 13:30N 70°28' E 022°53'510.9
2017-Apr-22 13:00N 70°23' E 022°50'612.2
2017-Apr-22 12:30N 70°18' E 023°01'611.7
2017-Apr-22 12:00N 70°15' E 023°15'1 1.6
2017-Apr-22 11:29N 70°14' E 023°17'0 0.0
2017-Apr-22 11:00N 70°14' E 023°17'3 5.0
2017-Apr-22 10:30N 70°15' E 023°10'510.1
2017-Apr-22 10:00N 70°19' E 022°60'510.1
2017-Apr-22 09:30N 70°23' E 022°50'4 9.0
2017-Apr-22 09:00N 70°27' E 022°51'5 9.4
2017-Apr-22 08:30N 70°31' E 022°60'5 9.5
2017-Apr-22 08:00N 70°35' E 023°09'5 9.6
2017-Apr-22 07:30N 70°38' E 023°19'5 9.6
2017-Apr-22 07:00N 70°42' E 023°28'5 9.9
2017-Apr-22 06:30N 70°46' E 023°38'5 9.6
2017-Apr-22 06:00N 70°49' E 023°48'5 9.8
2017-Apr-22 05:30N 70°52' E 024°00'510.4
2017-Apr-22 05:00N 70°55' E 024°13'510.6
2017-Apr-22 04:30N 70°59' E 024°24'5 9.9
2017-Apr-22 04:00N 71°02' E 024°37'510.9
2017-Apr-22 03:30N 70°60' E 024°53'510.5
2017-Apr-22 03:00N 70°59' E 025°08'510.3
2017-Apr-22 02:30N 70°59' E 025°24'510.6
2017-Apr-22 02:00N 70°56' E 025°38'510.5
2017-Apr-22 01:30N 70°57' E 025°54'510.4
2017-Apr-22 01:00N 70°57' E 026°09'510.3
2017-Apr-22 00:29N 70°58' E 026°25'510.1
2017-Apr-22 00:00N 70°59' E 026°40'5 9.2
2017-Apr-21 23:30N 70°55' E 026°47'510.4
2017-Apr-21 23:00N 70°49' E 026°49'510.5
2017-Apr-21 22:30N 70°44' E 026°48'510.4
2017-Apr-21 22:00N 70°39' E 026°46'510.5
2017-Apr-21 21:30N 70°34' E 026°44'6 1.8
2017-Apr-21 18:05N 70°28' E 026°42'511.9
2017-Apr-21 17:41N 70°32' E 026°43'212.0
2017-Apr-21 17:30N 70°34' E 026°45'611.9
2017-Apr-21 17:00N 70°40' E 026°48'611.8
2017-Apr-21 16:30N 70°46' E 026°50'611.7
2017-Apr-21 16:00N 70°52' E 026°50'611.7
2017-Apr-21 15:30N 70°58' E 026°45'610.9
2017-Apr-21 15:00N 70°58' E 026°28'612.0
2017-Apr-21 14:29N 70°57' E 026°10'1211.9
2017-Apr-21 13:30N 70°56' E 025°34'510.9
2017-Apr-21 13:00N 70°59' E 025°22'611.8
2017-Apr-21 12:30N 70°59' E 025°04'611.8
2017-Apr-21 12:00N 71°01' E 024°46'611.0
2017-Apr-21 11:30N 71°00' E 024°29'612.3
2017-Apr-21 11:00N 70°56' E 024°16'612.7
2017-Apr-21 10:30N 70°52' E 024°01'612.3
2017-Apr-21 09:59N 70°48' E 023°47'612.7
2017-Apr-21 09:30N 70°43' E 023°33'612.8
2017-Apr-21 09:00N 70°38' E 023°22'4 8.4
2017-Apr-21 08:30N 70°34' E 023°23'0 0.4
2017-Apr-21 07:58N 70°34' E 023°23'0 0.0
2017-Apr-21 07:30N 70°34' E 023°23'2 4.6
2017-Apr-21 07:00N 70°36' E 023°19'5 9.0
2017-Apr-21 06:29N 70°40' E 023°24'4 8.9
2017-Apr-21 06:00N 70°43' E 023°32'4 8.9
2017-Apr-21 05:30N 70°47' E 023°42'5 9.2
2017-Apr-21 05:00N 70°50' E 023°52'5 9.2
2017-Apr-21 04:30N 70°53' E 024°03'5 9.1
2017-Apr-21 03:59N 70°56' E 024°14'5 9.6
2017-Apr-21 03:30N 70°59' E 024°23'5 9.1
2017-Apr-21 02:59N 71°02' E 024°35'5 9.8
2017-Apr-21 02:29N 71°00' E 024°50'5 9.6
2017-Apr-21 01:59N 70°59' E 025°04'5 9.6
2017-Apr-21 01:30N 70°59' E 025°19'5 9.5
2017-Apr-21 01:00N 70°56' E 025°30'5 9.3
2017-Apr-21 00:29N 70°56' E 025°45'5 9.5
2017-Apr-21 00:00N 70°57' E 025°59'5 9.5
2017-Apr-20 23:30N 70°57' E 026°13'5 9.2
2017-Apr-20 23:00N 70°58' E 026°27'5 9.0
2017-Apr-20 22:30N 70°59' E 026°41'4 9.0
2017-Apr-20 22:00N 70°55' E 026°48'510.0
2017-Apr-20 21:30N 70°50' E 026°50'510.1
2017-Apr-20 21:00N 70°45' E 026°48'510.1
2017-Apr-20 20:30N 70°40' E 026°46'510.0
2017-Apr-20 20:00N 70°35' E 026°44'7 1.7
2017-Apr-20 15:45N 70°28' E 026°42'510.1
2017-Apr-20 15:18N 70°32' E 026°43'310.8
2017-Apr-20 14:59N 70°35' E 026°46'510.7
2017-Apr-20 14:30N 70°41' E 026°49'1110.3
2017-Apr-20 13:29N 70°51' E 026°49'510.4
2017-Apr-20 12:59N 70°56' E 026°47'5 9.4
2017-Apr-20 12:30N 70°59' E 026°36'611.4
2017-Apr-20 11:59N 70°58' E 026°18'611.3
2017-Apr-20 11:30N 70°57' E 026°01'611.4
2017-Apr-20 11:00N 70°56' E 025°44'510.5
2017-Apr-20 10:30N 70°57' E 025°29'510.3
2017-Apr-20 10:00N 70°59' E 025°15'511.0
2017-Apr-20 09:30N 70°60' E 024°58'611.6
2017-Apr-20 08:59N 71°01' E 024°40'510.4
2017-Apr-20 08:29N 70°59' E 024°25'611.7
2017-Apr-20 08:00N 70°55' E 024°13'612.2
2017-Apr-20 07:30N 70°51' E 023°59'611.8
2017-Apr-20 07:00N 70°47' E 023°46'612.2
2017-Apr-20 06:30N 70°43' E 023°32'612.3
2017-Apr-20 06:00N 70°38' E 023°21'4 8.5
2017-Apr-20 05:30N 70°34' E 023°22'0 0.9
2017-Apr-20 05:00N 70°34' E 023°23'0 0.0
2017-Apr-20 04:29N 70°34' E 023°23'0 0.3
2017-Apr-20 04:00N 70°34' E 023°24'0 0.0
2017-Apr-20 03:30N 70°34' E 023°24'0 0.0
2017-Apr-20 02:59N 70°34' E 023°24'0 0.0
2017-Apr-20 02:30N 70°34' E 023°24'0 0.0
2017-Apr-20 02:00N 70°34' E 023°24'0 0.0
2017-Apr-20 01:30N 70°34' E 023°24'0 0.0
2017-Apr-20 01:00N 70°34' E 023°24'0 0.0
2017-Apr-20 00:30N 70°34' E 023°24'0 0.2
2017-Apr-20 00:00N 70°34' E 023°23'2 4.4
2017-Apr-19 23:30N 70°36' E 023°18'4 8.0
2017-Apr-19 23:00N 70°39' E 023°22'4 8.0
2017-Apr-19 22:29N 70°42' E 023°30'4 7.7
2017-Apr-19 22:00N 70°45' E 023°38'4 7.2
2017-Apr-19 21:30N 70°48' E 023°46'4 7.3
2017-Apr-19 21:00N 70°50' E 023°54'4 7.6
2017-Apr-19 20:30N 70°52' E 024°03'4 7.3
2017-Apr-19 20:00N 70°55' E 024°11'4 7.8
2017-Apr-19 19:30N 70°58' E 024°20'4 7.4
2017-Apr-19 19:00N 71°00' E 024°28'3 6.8
2017-Apr-19 18:30N 71°02' E 024°37'4 7.4
2017-Apr-19 18:00N 71°01' E 024°48'4 8.0
2017-Apr-19 17:30N 70°59' E 025°00'4 8.5
2017-Apr-19 17:00N 70°59' E 025°13'4 7.9
2017-Apr-19 16:29N 70°58' E 025°25'4 8.0
2017-Apr-19 16:00N 70°56' E 025°33'4 7.6
2017-Apr-19 15:30N 70°57' E 025°45'1 1.6
2017-Apr-19 15:00N 70°57' E 025°47'4 7.7
2017-Apr-19 14:30N 70°57' E 025°59'9 8.7
2017-Apr-19 13:29N 70°58' E 026°26'4 8.4
2017-Apr-19 13:00N 70°59' E 026°38'3 6.1
2017-Apr-19 12:30N 70°57' E 026°44'4 7.7
2017-Apr-19 12:00N 70°53' E 026°48'4 7.9
2017-Apr-19 11:29N 70°49' E 026°50'4 8.6
2017-Apr-19 11:00N 70°45' E 026°48'5 9.3
2017-Apr-19 10:29N 70°40' E 026°46'4 9.1
2017-Apr-19 10:00N 70°36' E 026°44'8 0.9
2017-Apr-19 01:13N 70°28' E 026°42'5 7.7
2017-Apr-19 00:36N 70°32' E 026°43'1 7.7
2017-Apr-19 00:30N 70°33' E 026°44'4 7.3
2017-Apr-19 00:00N 70°37' E 026°47'4 7.3
2017-Apr-18 23:23N 70°41' E 026°49'3 7.7
2017-Apr-18 23:00N 70°44' E 026°50'4 7.5
2017-Apr-18 22:30N 70°48' E 026°50'4 7.6
2017-Apr-18 21:59N 70°52' E 026°49'4 7.9
2017-Apr-18 21:30N 70°55' E 026°47'4 7.7
2017-Apr-18 20:59N 70°59' E 026°40'4 8.7
2017-Apr-18 20:30N 70°58' E 026°28'4 8.6
2017-Apr-18 20:00N 70°58' E 026°14'4 8.6
2017-Apr-18 19:30N 70°57' E 026°02'5 9.0
2017-Apr-18 19:00N 70°56' E 025°48'4 8.8
2017-Apr-18 18:30N 70°56' E 025°35'510.2
2017-Apr-18 18:00N 70°59' E 025°22'5 9.5
2017-Apr-18 17:30N 70°60' E 025°08'2 4.5
2017-Apr-18 16:59N 70°60' E 025°01'611.2
2017-Apr-18 16:29N 71°01' E 024°44'510.6
2017-Apr-18 16:00N 71°00' E 024°28'611.4
2017-Apr-18 15:30N 70°56' E 024°17'611.9
2017-Apr-18 14:59N 70°52' E 024°03'1111.2
2017-Apr-18 14:00N 70°45' E 023°38'5 9.4
2017-Apr-18 13:30N 70°40' E 023°35'2 3.5
2017-Apr-18 13:00N 70°40' E 023°40'0 0.1
2017-Apr-18 12:30N 70°40' E 023°40'0 0.1
2017-Apr-18 12:00N 70°40' E 023°40'4 8.7
2017-Apr-18 11:30N 70°39' E 023°28'5 9.6
2017-Apr-18 11:00N 70°36' E 023°16'611.2
2017-Apr-18 10:30N 70°32' E 023°03'611.3
2017-Apr-18 10:00N 70°28' E 022°53'510.0
2017-Apr-18 09:30N 70°23' E 022°50'611.1
2017-Apr-18 09:00N 70°19' E 023°00'611.1
2017-Apr-18 08:30N 70°13' E 023°04'510.7
2017-Apr-18 08:00N 70°08' E 023°06'510.6
2017-Apr-18 07:30N 70°03' E 023°12'510.2
2017-Apr-18 07:00N 69°59' E 023°20'0 0.0
2017-Apr-18 06:30N 69°59' E 023°20'0 0.0
2017-Apr-18 06:00N 69°59' E 023°20'0 0.0
2017-Apr-18 05:30N 69°59' E 023°20'3 5.1
2017-Apr-18 05:00N 70°01' E 023°17'510.7
2017-Apr-18 04:30N 70°05' E 023°07'611.0
2017-Apr-18 04:00N 70°11' E 023°02'510.3
2017-Apr-18 03:30N 70°14' E 022°50'611.3
2017-Apr-18 03:00N 70°15' E 022°34'611.4
2017-Apr-18 02:30N 70°18' E 022°19'611.4
2017-Apr-18 02:00N 70°21' E 022°04'611.2
2017-Apr-18 01:30N 70°23' E 021°49'5 9.3
2017-Apr-18 00:59N 70°22' E 021°36'611.7
2017-Apr-18 00:30N 70°17' E 021°24'611.3
2017-Apr-17 23:59N 70°14' E 021°10'511.1
2017-Apr-17 23:30N 70°09' E 021°03'611.3
2017-Apr-17 23:00N 70°04' E 020°55'611.2
2017-Apr-17 22:30N 70°02' E 020°40'611.4
2017-Apr-17 22:00N 69°60' E 020°25'611.3
2017-Apr-17 21:30N 69°57' E 020°09'611.4
2017-Apr-17 20:59N 69°54' E 019°56'611.5
2017-Apr-17 20:30N 69°50' E 019°43'611.4
2017-Apr-17 20:00N 69°48' E 019°28'611.2
2017-Apr-17 19:30N 69°46' E 019°13'611.0
2017-Apr-17 19:00N 69°42' E 019°03'510.9
2017-Apr-17 18:30N 69°37' E 018°55'510.7
2017-Apr-17 18:00N 69°33' E 018°45'510.3
2017-Apr-17 17:30N 69°32' E 018°31'611.2
2017-Apr-17 17:00N 69°30' E 018°15'5 9.9
2017-Apr-17 16:30N 69°26' E 018°07'510.9
2017-Apr-17 16:00N 69°21' E 018°04'510.3
2017-Apr-17 15:30N 69°16' E 017°58'510.2
2017-Apr-17 15:00N 69°11' E 017°60'611.4
2017-Apr-17 14:30N 69°09' E 017°45'1111.0
2017-Apr-17 13:29N 69°02' E 017°19'611.4
2017-Apr-17 13:00N 68°58' E 017°09'611.3
2017-Apr-17 12:30N 68°54' E 016°59'611.2
2017-Apr-17 11:59N 68°49' E 016°51'611.3
2017-Apr-17 11:30N 68°44' E 016°44'611.5
2017-Apr-17 11:00N 68°39' E 016°36'611.0
2017-Apr-17 10:29N 68°34' E 016°31'510.3
2017-Apr-17 10:00N 68°33' E 016°17'510.8
2017-Apr-17 09:30N 68°29' E 016°07'611.4
2017-Apr-17 09:00N 68°24' E 016°01'611.3
2017-Apr-17 08:30N 68°19' E 015°53'611.2
2017-Apr-17 08:00N 68°15' E 015°42'611.3
2017-Apr-17 07:30N 68°11' E 015°31'611.0
2017-Apr-17 07:00N 68°08' E 015°19'611.3
2017-Apr-17 06:30N 68°04' E 015°08'611.2
2017-Apr-17 06:00N 68°00' E 014°58'611.1
2017-Apr-17 05:30N 67°56' E 014°48'510.6
2017-Apr-17 05:00N 67°51' E 014°41'611.2
2017-Apr-17 04:30N 67°47' E 014°30'611.4
2017-Apr-17 04:00N 67°42' E 014°31'611.5
2017-Apr-17 03:30N 67°36' E 014°30'611.3
2017-Apr-17 03:00N 67°30' E 014°29'611.6
2017-Apr-17 02:30N 67°25' E 014°27'611.0
2017-Apr-17 02:00N 67°20' E 014°20'611.2
2017-Apr-17 01:30N 67°15' E 014°11'611.5
2017-Apr-17 01:00N 67°10' E 014°03'611.5
2017-Apr-17 00:30N 67°05' E 013°56'611.4
2017-Apr-17 00:00N 67°01' E 013°45'611.6
2017-Apr-16 23:29N 66°59' E 013°31'611.8
2017-Apr-16 23:00N 66°57' E 013°18'611.9
2017-Apr-16 22:30N 66°53' E 013°06'611.6
2017-Apr-16 22:00N 66°50' E 012°53'611.1
2017-Apr-16 21:30N 66°45' E 012°47'611.1
2017-Apr-16 21:00N 66°40' E 012°41'611.6
2017-Apr-16 20:30N 66°34' E 012°42'611.4
2017-Apr-16 20:00N 66°29' E 012°40'5 9.5
2017-Apr-16 19:30N 66°24' E 012°42'611.3
2017-Apr-16 19:00N 66°19' E 012°39'611.6
2017-Apr-16 18:30N 66°13' E 012°39'611.9
2017-Apr-16 18:00N 66°07' E 012°40'611.3
2017-Apr-16 17:30N 66°02' E 012°34'611.5
2017-Apr-16 17:00N 65°57' E 012°25'611.5
2017-Apr-16 16:29N 65°51' E 012°22'611.5
2017-Apr-16 16:00N 65°46' E 012°18'511.2
2017-Apr-16 15:30N 65°41' E 012°14'611.1
2017-Apr-16 15:00N 65°36' E 012°09'611.3
2017-Apr-16 14:29N 65°31' E 012°00'10 9.9
2017-Apr-16 13:30N 65°21' E 012°04'611.4
2017-Apr-16 13:00N 65°17' E 011°57'611.3
2017-Apr-16 12:30N 65°12' E 011°48'611.5
2017-Apr-16 12:00N 65°10' E 011°36'611.8
2017-Apr-16 11:30N 65°05' E 011°27'510.7
2017-Apr-16 11:00N 65°00' E 011°23'611.6
2017-Apr-16 10:30N 64°54' E 011°21'612.1
2017-Apr-16 10:00N 64°50' E 011°11'611.4
2017-Apr-16 09:30N 64°46' E 011°01'611.3
2017-Apr-16 08:59N 64°42' E 010°51'611.1
2017-Apr-16 08:30N 64°38' E 010°43'611.4
2017-Apr-16 08:00N 64°33' E 010°35'611.5
2017-Apr-16 07:30N 64°29' E 010°27'611.3
2017-Apr-16 07:00N 64°23' E 010°25'611.3
2017-Apr-16 06:30N 64°18' E 010°20'510.2
2017-Apr-16 06:00N 64°14' E 010°14'  
Track history (hours):
 
Tides and Currents Weather Stations Pressure Air Temp Water Temp Dewpoint Dewpoint Depression Visibility Wind Speed Wind Dir Waves Ship Positions

Rostein

Last reported at 2017-Apr-26 05:30 UTC. Time now 2017-Apr-26 05:52 UTC.
Position N 69°34' E 018°46'.

Length 57 m; draft 4 m.

Type: Cargo ship. MMSI: 257210000.

Date/timePositionNaut miles runAvg speedWind from/ knotsBaromVisibWave heightAir tempDewpointWater temp
2017-Apr-26 05:30N 69°34' E 018°46'5 9.7
2017-Apr-26 05:00N 69°32' E 018°32'510.1
2017-Apr-26 04:30N 69°30' E 018°19'510.0
2017-Apr-26 04:00N 69°28' E 018°07'510.3
2017-Apr-26 03:30N 69°22' E 018°05'5 9.8
2017-Apr-26 03:00N 69°18' E 017°58'5 9.3
2017-Apr-26 02:30N 69°14' E 017°58'4 7.9
2017-Apr-26 02:00N 69°10' E 017°56'510.1
2017-Apr-26 01:30N 69°09' E 017°42'1 2.5
2017-Apr-26 01:00N 69°09' E 017°39'0 0.0
2017-Apr-26 00:30N 69°09' E 017°39'0 0.0
2017-Apr-26 00:00N 69°09' E 017°39'1 1.8
2017-Apr-25 23:30N 69°09' E 017°41'612.3
2017-Apr-25 23:00N 69°10' E 017°58'510.5
2017-Apr-25 22:30N 69°16' E 017°58'611.5
2017-Apr-25 22:00N 69°21' E 018°05'612.2
2017-Apr-25 21:30N 69°27' E 018°07'611.7
2017-Apr-25 21:00N 69°30' E 018°20'612.3
2017-Apr-25 20:30N 69°33' E 018°37'510.6
2017-Apr-25 20:00N 69°35' E 018°50'611.5
2017-Apr-25 19:30N 69°40' E 018°60'612.0
2017-Apr-25 19:00N 69°45' E 019°08'612.1
2017-Apr-25 18:30N 69°48' E 019°23'612.2
2017-Apr-25 18:00N 69°50' E 019°39'612.3
2017-Apr-25 17:30N 69°54' E 019°54'612.3
2017-Apr-25 17:00N 69°58' E 020°08'611.9
2017-Apr-25 16:30N 70°00' E 020°24'612.3
2017-Apr-25 16:00N 70°02' E 020°41'612.3
2017-Apr-25 15:29N 70°04' E 020°58'2 4.0
2017-Apr-25 15:00N 70°02' E 020°59'0 0.0
2017-Apr-25 14:30N 70°02' E 020°59'0 0.0
2017-Apr-25 13:30N 70°02' E 020°59'0 0.0
2017-Apr-25 13:00N 70°02' E 020°59'1 2.8
2017-Apr-25 12:30N 70°03' E 021°01'3 6.9
2017-Apr-25 12:00N 70°03' E 020°51'4 8.4
2017-Apr-25 11:30N 70°02' E 020°40'4 8.2
2017-Apr-25 11:00N 70°00' E 020°28'510.1
2017-Apr-25 10:29N 69°59' E 020°14'510.2
2017-Apr-25 10:00N 69°56' E 020°02'510.0
2017-Apr-25 09:30N 69°53' E 019°51'5 9.9
2017-Apr-25 09:00N 69°50' E 019°38'510.1
2017-Apr-25 08:30N 69°48' E 019°25'510.3
2017-Apr-25 08:00N 69°46' E 019°11'510.0
2017-Apr-25 07:30N 69°42' E 019°03'510.6
2017-Apr-25 07:00N 69°37' E 018°55'511.1
2017-Apr-25 06:30N 69°33' E 018°44'611.0
2017-Apr-25 06:00N 69°32' E 018°29'510.3
2017-Apr-25 05:30N 69°30' E 018°16'4 8.8
2017-Apr-25 05:00N 69°26' E 018°07'510.2
2017-Apr-25 04:30N 69°21' E 018°06'5 9.7
2017-Apr-25 04:00N 69°17' E 017°58'5 9.4
2017-Apr-25 03:30N 69°13' E 018°00'4 7.9
2017-Apr-25 03:00N 69°09' E 017°53'510.1
2017-Apr-25 02:30N 69°09' E 017°39'0 0.8
2017-Apr-25 02:00N 69°09' E 017°39'0 0.0
2017-Apr-25 01:30N 69°09' E 017°39'0 0.0
2017-Apr-25 01:00N 69°09' E 017°39'2 3.1
2017-Apr-25 00:30N 69°09' E 017°43'611.3
2017-Apr-25 00:00N 69°10' E 017°58'5 9.9
2017-Apr-24 23:30N 69°15' E 017°58'510.5
2017-Apr-24 22:59N 69°20' E 018°03'510.7
2017-Apr-24 22:30N 69°25' E 018°07'510.5
2017-Apr-24 22:00N 69°30' E 018°14'611.5
2017-Apr-24 21:30N 69°32' E 018°30'510.4
2017-Apr-24 21:00N 69°33' E 018°44'5 9.9
2017-Apr-24 20:30N 69°37' E 018°54'510.9
2017-Apr-24 20:00N 69°42' E 019°02'611.3
2017-Apr-24 19:30N 69°46' E 019°12'611.7
2017-Apr-24 19:00N 69°49' E 019°27'611.9
2017-Apr-24 18:30N 69°51' E 019°43'611.8
2017-Apr-24 18:00N 69°55' E 019°56'611.8
2017-Apr-24 17:29N 69°58' E 020°11'611.9
2017-Apr-24 17:00N 70°00' E 020°26'612.1
2017-Apr-24 16:30N 70°02' E 020°43'612.0
2017-Apr-24 16:00N 70°04' E 020°60'2 3.9
2017-Apr-24 15:30N 70°02' E 020°59'0 0.1
2017-Apr-24 15:00N 70°02' E 020°59'0 0.0
2017-Apr-24 14:30N 70°02' E 020°59'6 6.4
2017-Apr-24 13:30N 70°02' E 020°40'510.1
2017-Apr-24 13:00N 69°60' E 020°27'510.0
2017-Apr-24 12:29N 69°58' E 020°13'510.3
2017-Apr-24 12:00N 69°55' E 020°01'510.3
2017-Apr-24 11:29N 69°52' E 019°49'510.2
2017-Apr-24 10:59N 69°50' E 019°36'510.0
2017-Apr-24 10:30N 69°48' E 019°22'510.0
2017-Apr-24 09:59N 69°47' E 019°08'5 9.6
2017-Apr-24 09:30N 69°50' E 018°58'510.4
2017-Apr-24 08:59N 69°53' E 018°46'4 7.0
2017-Apr-24 08:29N 69°51' E 018°38'4 8.0
2017-Apr-24 08:00N 69°49' E 018°30'5 9.4
2017-Apr-24 07:30N 69°47' E 018°17'5 9.0
2017-Apr-24 07:00N 69°43' E 018°11'1 2.5
2017-Apr-24 06:30N 69°42' E 018°10'0 0.0
2017-Apr-24 06:00N 69°42' E 018°10'3 5.7
2017-Apr-24 05:30N 69°44' E 018°16'510.3
2017-Apr-24 05:00N 69°48' E 018°23'611.2
2017-Apr-24 04:30N 69°50' E 018°38'4 8.4
2017-Apr-24 04:00N 69°54' E 018°45'612.3
2017-Apr-24 03:30N 69°50' E 018°59'611.1
2017-Apr-24 03:00N 69°47' E 019°13'612.1
2017-Apr-24 02:30N 69°49' E 019°30'612.1
2017-Apr-24 02:00N 69°51' E 019°46'611.8
2017-Apr-24 01:30N 69°55' E 019°59'611.9
2017-Apr-24 01:00N 69°59' E 020°12'611.9
2017-Apr-24 00:30N 70°01' E 020°29'611.9
2017-Apr-24 00:00N 70°02' E 020°46'511.2
2017-Apr-23 23:30N 70°06' E 020°58'611.9
2017-Apr-23 23:00N 70°12' E 021°05'611.3
2017-Apr-23 22:30N 70°16' E 021°16'611.5
2017-Apr-23 22:00N 70°20' E 021°29'611.4
2017-Apr-23 21:30N 70°24' E 021°41'611.4
2017-Apr-23 21:00N 70°22' E 021°57'611.9
2017-Apr-23 20:30N 70°19' E 022°13'612.0
2017-Apr-23 20:00N 70°16' E 022°29'612.0
2017-Apr-23 19:30N 70°14' E 022°46'612.0
2017-Apr-23 19:00N 70°14' E 023°03'5 9.7
2017-Apr-23 18:30N 70°14' E 023°17'0 0.0
2017-Apr-23 18:00N 70°14' E 023°17'0 0.5
2017-Apr-23 17:30N 70°14' E 023°17'510.1
2017-Apr-23 17:00N 70°17' E 023°04'510.0
2017-Apr-23 16:30N 70°21' E 022°55'510.0
2017-Apr-23 16:01N 70°25' E 022°47'510.7
2017-Apr-23 15:30N 70°30' E 022°55'510.4
2017-Apr-23 15:00N 70°34' E 023°05'1010.3
2017-Apr-23 14:00N 70°41' E 023°26'510.1
2017-Apr-23 13:30N 70°45' E 023°36'510.2
2017-Apr-23 13:00N 70°48' E 023°48'510.1
2017-Apr-23 12:29N 70°51' E 024°00'5 9.8
2017-Apr-23 12:00N 70°55' E 024°11'510.0
2017-Apr-23 11:30N 70°58' E 024°22'5 9.9
2017-Apr-23 11:00N 71°02' E 024°33'5 9.4
2017-Apr-23 10:30N 71°01' E 024°47'5 9.9
2017-Apr-23 10:00N 70°59' E 025°02'510.3
2017-Apr-23 09:30N 70°59' E 025°18'4 8.7
2017-Apr-23 09:00N 70°57' E 025°29'4 8.7
2017-Apr-23 08:29N 70°56' E 025°42'510.3
2017-Apr-23 08:00N 70°57' E 025°58'510.4
2017-Apr-23 07:30N 70°58' E 026°13'510.4
2017-Apr-23 06:59N 70°58' E 026°30'5 9.7
2017-Apr-23 06:30N 70°58' E 026°44'510.5
2017-Apr-23 06:00N 70°53' E 026°48'510.3
2017-Apr-23 05:30N 70°47' E 026°48'510.6
2017-Apr-23 05:00N 70°42' E 026°46'510.5
2017-Apr-23 04:30N 70°37' E 026°45'9 2.1
2017-Apr-23 00:06N 70°28' E 026°43'5 7.2
2017-Apr-22 23:25N 70°33' E 026°43'512.0
2017-Apr-22 23:00N 70°38' E 026°45'612.1
2017-Apr-22 22:30N 70°44' E 026°47'612.0
2017-Apr-22 21:59N 70°50' E 026°49'612.0
2017-Apr-22 21:30N 70°56' E 026°46'5 9.7
2017-Apr-22 21:00N 70°59' E 026°34'611.7
2017-Apr-22 20:30N 70°58' E 026°16'611.6
2017-Apr-22 19:59N 70°57' E 025°58'611.9
2017-Apr-22 19:30N 70°56' E 025°41'610.9
2017-Apr-22 18:59N 70°58' E 025°25'611.8
2017-Apr-22 18:30N 70°59' E 025°08'611.4
2017-Apr-22 18:00N 71°00' E 024°50'611.2
2017-Apr-22 17:30N 71°02' E 024°34'611.3
2017-Apr-22 17:00N 70°58' E 024°21'611.2
2017-Apr-22 16:30N 70°54' E 024°08'611.7
2017-Apr-22 15:59N 70°50' E 023°54'612.1
2017-Apr-22 15:30N 70°46' E 023°41'611.8
2017-Apr-22 15:00N 70°42' E 023°29'612.1
2017-Apr-22 14:30N 70°37' E 023°17'1212.3
2017-Apr-22 13:30N 70°28' E 022°53'510.9
2017-Apr-22 13:00N 70°23' E 022°50'612.2
2017-Apr-22 12:30N 70°18' E 023°01'611.7
2017-Apr-22 12:00N 70°15' E 023°15'1 1.6
2017-Apr-22 11:29N 70°14' E 023°17'0 0.0
2017-Apr-22 11:00N 70°14' E 023°17'3 5.0
2017-Apr-22 10:30N 70°15' E 023°10'510.1
2017-Apr-22 10:00N 70°19' E 022°60'510.1
2017-Apr-22 09:30N 70°23' E 022°50'4 9.0
2017-Apr-22 09:00N 70°27' E 022°51'5 9.4
2017-Apr-22 08:30N 70°31' E 022°60'5 9.5
2017-Apr-22 08:00N 70°35' E 023°09'5 9.6
2017-Apr-22 07:30N 70°38' E 023°19'5 9.6
2017-Apr-22 07:00N 70°42' E 023°28'5 9.9
2017-Apr-22 06:30N 70°46' E 023°38'5 9.6
2017-Apr-22 06:00N 70°49' E 023°48'5 9.8
2017-Apr-22 05:30N 70°52' E 024°00'510.4
2017-Apr-22 05:00N 70°55' E 024°13'510.6
2017-Apr-22 04:30N 70°59' E 024°24'5 9.9
2017-Apr-22 04:00N 71°02' E 024°37'510.9
2017-Apr-22 03:30N 70°60' E 024°53'510.5
2017-Apr-22 03:00N 70°59' E 025°08'510.3
2017-Apr-22 02:30N 70°59' E 025°24'510.6
2017-Apr-22 02:00N 70°56' E 025°38'510.5
2017-Apr-22 01:30N 70°57' E 025°54'510.4
2017-Apr-22 01:00N 70°57' E 026°09'510.3
2017-Apr-22 00:29N 70°58' E 026°25'510.1
2017-Apr-22 00:00N 70°59' E 026°40'5 9.2
2017-Apr-21 23:30N 70°55' E 026°47'510.4
2017-Apr-21 23:00N 70°49' E 026°49'510.5
2017-Apr-21 22:30N 70°44' E 026°48'510.4
2017-Apr-21 22:00N 70°39' E 026°46'510.5
2017-Apr-21 21:30N 70°34' E 026°44'6 1.8
2017-Apr-21 18:05N 70°28' E 026°42'511.9
2017-Apr-21 17:41N 70°32' E 026°43'212.0
2017-Apr-21 17:30N 70°34' E 026°45'611.9
2017-Apr-21 17:00N 70°40' E 026°48'611.8
2017-Apr-21 16:30N 70°46' E 026°50'611.7
2017-Apr-21 16:00N 70°52' E 026°50'611.7
2017-Apr-21 15:30N 70°58' E 026°45'610.9
2017-Apr-21 15:00N 70°58' E 026°28'612.0
2017-Apr-21 14:29N 70°57' E 026°10'1211.9
2017-Apr-21 13:30N 70°56' E 025°34'510.9
2017-Apr-21 13:00N 70°59' E 025°22'611.8
2017-Apr-21 12:30N 70°59' E 025°04'611.8
2017-Apr-21 12:00N 71°01' E 024°46'611.0
2017-Apr-21 11:30N 71°00' E 024°29'612.3
2017-Apr-21 11:00N 70°56' E 024°16'612.7
2017-Apr-21 10:30N 70°52' E 024°01'612.3
2017-Apr-21 09:59N 70°48' E 023°47'612.7
2017-Apr-21 09:30N 70°43' E 023°33'612.8
2017-Apr-21 09:00N 70°38' E 023°22'4 8.4
2017-Apr-21 08:30N 70°34' E 023°23'0 0.4
2017-Apr-21 07:58N 70°34' E 023°23'0 0.0
2017-Apr-21 07:30N 70°34' E 023°23'2 4.6
2017-Apr-21 07:00N 70°36' E 023°19'5 9.0
2017-Apr-21 06:29N 70°40' E 023°24'4 8.9
2017-Apr-21 06:00N 70°43' E 023°32'4 8.9
2017-Apr-21 05:30N 70°47' E 023°42'5 9.2
2017-Apr-21 05:00N 70°50' E 023°52'5 9.2
2017-Apr-21 04:30N 70°53' E 024°03'5 9.1
2017-Apr-21 03:59N 70°56' E 024°14'5 9.6
2017-Apr-21 03:30N 70°59' E 024°23'5 9.1
2017-Apr-21 02:59N 71°02' E 024°35'5 9.8
2017-Apr-21 02:29N 71°00' E 024°50'5 9.6
2017-Apr-21 01:59N 70°59' E 025°04'5 9.6
2017-Apr-21 01:30N 70°59' E 025°19'5 9.5
2017-Apr-21 01:00N 70°56' E 025°30'5 9.3
2017-Apr-21 00:29N 70°56' E 025°45'5 9.5
2017-Apr-21 00:00N 70°57' E 025°59'5 9.5
2017-Apr-20 23:30N 70°57' E 026°13'5 9.2
2017-Apr-20 23:00N 70°58' E 026°27'5 9.0
2017-Apr-20 22:30N 70°59' E 026°41'4 9.0
2017-Apr-20 22:00N 70°55' E 026°48'510.0
2017-Apr-20 21:30N 70°50' E 026°50'510.1
2017-Apr-20 21:00N 70°45' E 026°48'510.1
2017-Apr-20 20:30N 70°40' E 026°46'510.0
2017-Apr-20 20:00N 70°35' E 026°44'7 1.7
2017-Apr-20 15:45N 70°28' E 026°42'510.1
2017-Apr-20 15:18N 70°32' E 026°43'310.8
2017-Apr-20 14:59N 70°35' E 026°46'510.7
2017-Apr-20 14:30N 70°41' E 026°49'1110.3
2017-Apr-20 13:29N 70°51' E 026°49'510.4
2017-Apr-20 12:59N 70°56' E 026°47'5 9.4
2017-Apr-20 12:30N 70°59' E 026°36'611.4
2017-Apr-20 11:59N 70°58' E 026°18'611.3
2017-Apr-20 11:30N 70°57' E 026°01'611.4
2017-Apr-20 11:00N 70°56' E 025°44'510.5
2017-Apr-20 10:30N 70°57' E 025°29'510.3
2017-Apr-20 10:00N 70°59' E 025°15'511.0
2017-Apr-20 09:30N 70°60' E 024°58'611.6
2017-Apr-20 08:59N 71°01' E 024°40'510.4
2017-Apr-20 08:29N 70°59' E 024°25'611.7
2017-Apr-20 08:00N 70°55' E 024°13'612.2
2017-Apr-20 07:30N 70°51' E 023°59'611.8
2017-Apr-20 07:00N 70°47' E 023°46'612.2
2017-Apr-20 06:30N 70°43' E 023°32'612.3
2017-Apr-20 06:00N 70°38' E 023°21'4 8.5
2017-Apr-20 05:30N 70°34' E 023°22'0 0.9
2017-Apr-20 05:00N 70°34' E 023°23'0 0.0
2017-Apr-20 04:29N 70°34' E 023°23'0 0.3
2017-Apr-20 04:00N 70°34' E 023°24'0 0.0
2017-Apr-20 03:30N 70°34' E 023°24'0 0.0
2017-Apr-20 02:59N 70°34' E 023°24'0 0.0
2017-Apr-20 02:30N 70°34' E 023°24'0 0.0
2017-Apr-20 02:00N 70°34' E 023°24'0 0.0
2017-Apr-20 01:30N 70°34' E 023°24'0 0.0
2017-Apr-20 01:00N 70°34' E 023°24'0 0.0
2017-Apr-20 00:30N 70°34' E 023°24'0 0.2
2017-Apr-20 00:00N 70°34' E 023°23'2 4.4
2017-Apr-19 23:30N 70°36' E 023°18'4 8.0
2017-Apr-19 23:00N 70°39' E 023°22'4 8.0
2017-Apr-19 22:29N 70°42' E 023°30'4 7.7
2017-Apr-19 22:00N 70°45' E 023°38'4 7.2
2017-Apr-19 21:30N 70°48' E 023°46'4 7.3
2017-Apr-19 21:00N 70°50' E 023°54'4 7.6
2017-Apr-19 20:30N 70°52' E 024°03'4 7.3
2017-Apr-19 20:00N 70°55' E 024°11'4 7.8
2017-Apr-19 19:30N 70°58' E 024°20'4 7.4
2017-Apr-19 19:00N 71°00' E 024°28'3 6.8
2017-Apr-19 18:30N 71°02' E 024°37'4 7.4
2017-Apr-19 18:00N 71°01' E 024°48'4 8.0
2017-Apr-19 17:30N 70°59' E 025°00'4 8.5
2017-Apr-19 17:00N 70°59' E 025°13'4 7.9
2017-Apr-19 16:29N 70°58' E 025°25'4 8.0
2017-Apr-19 16:00N 70°56' E 025°33'4 7.6
2017-Apr-19 15:30N 70°57' E 025°45'1 1.6
2017-Apr-19 15:00N 70°57' E 025°47'4 7.7
2017-Apr-19 14:30N 70°57' E 025°59'9 8.7
2017-Apr-19 13:29N 70°58' E 026°26'4 8.4
2017-Apr-19 13:00N 70°59' E 026°38'3 6.1
2017-Apr-19 12:30N 70°57' E 026°44'4 7.7
2017-Apr-19 12:00N 70°53' E 026°48'4 7.9
2017-Apr-19 11:29N 70°49' E 026°50'4 8.6
2017-Apr-19 11:00N 70°45' E 026°48'5 9.3
2017-Apr-19 10:29N 70°40' E 026°46'4 9.1
2017-Apr-19 10:00N 70°36' E 026°44'8 0.9
2017-Apr-19 01:13N 70°28' E 026°42'5 7.7
2017-Apr-19 00:36N 70°32' E 026°43'1 7.7
2017-Apr-19 00:30N 70°33' E 026°44'4 7.3
2017-Apr-19 00:00N 70°37' E 026°47'4 7.3
2017-Apr-18 23:23N 70°41' E 026°49'3 7.7
2017-Apr-18 23:00N 70°44' E 026°50'4 7.5
2017-Apr-18 22:30N 70°48' E 026°50'4 7.6
2017-Apr-18 21:59N 70°52' E 026°49'4 7.9
2017-Apr-18 21:30N 70°55' E 026°47'4 7.7
2017-Apr-18 20:59N 70°59' E 026°40'4 8.7
2017-Apr-18 20:30N 70°58' E 026°28'4 8.6
2017-Apr-18 20:00N 70°58' E 026°14'4 8.6
2017-Apr-18 19:30N 70°57' E 026°02'5 9.0
2017-Apr-18 19:00N 70°56' E 025°48'4 8.8
2017-Apr-18 18:30N 70°56' E 025°35'510.2
2017-Apr-18 18:00N 70°59' E 025°22'5 9.5
2017-Apr-18 17:30N 70°60' E 025°08'2 4.5
2017-Apr-18 16:59N 70°60' E 025°01'611.2
2017-Apr-18 16:29N 71°01' E 024°44'510.6
2017-Apr-18 16:00N 71°00' E 024°28'611.4
2017-Apr-18 15:30N 70°56' E 024°17'611.9
2017-Apr-18 14:59N 70°52' E 024°03'1111.2
2017-Apr-18 14:00N 70°45' E 023°38'5 9.4
2017-Apr-18 13:30N 70°40' E 023°35'2 3.5
2017-Apr-18 13:00N 70°40' E 023°40'0 0.1
2017-Apr-18 12:30N 70°40' E 023°40'0 0.1
2017-Apr-18 12:00N 70°40' E 023°40'4 8.7
2017-Apr-18 11:30N 70°39' E 023°28'5 9.6
2017-Apr-18 11:00N 70°36' E 023°16'611.2
2017-Apr-18 10:30N 70°32' E 023°03'611.3
2017-Apr-18 10:00N 70°28' E 022°53'510.0
2017-Apr-18 09:30N 70°23' E 022°50'611.1
2017-Apr-18 09:00N 70°19' E 023°00'611.1
2017-Apr-18 08:30N 70°13' E 023°04'510.7
2017-Apr-18 08:00N 70°08' E 023°06'510.6
2017-Apr-18 07:30N 70°03' E 023°12'510.2
2017-Apr-18 07:00N 69°59' E 023°20'0 0.0
2017-Apr-18 06:30N 69°59' E 023°20'0 0.0
2017-Apr-18 06:00N 69°59' E 023°20'0 0.0
2017-Apr-18 05:30N 69°59' E 023°20'3 5.1
2017-Apr-18 05:00N 70°01' E 023°17'510.7
2017-Apr-18 04:30N 70°05' E 023°07'611.0
2017-Apr-18 04:00N 70°11' E 023°02'510.3
2017-Apr-18 03:30N 70°14' E 022°50'611.3
2017-Apr-18 03:00N 70°15' E 022°34'611.4
2017-Apr-18 02:30N 70°18' E 022°19'611.4
2017-Apr-18 02:00N 70°21' E 022°04'611.2
2017-Apr-18 01:30N 70°23' E 021°49'5 9.3
2017-Apr-18 00:59N 70°22' E 021°36'611.7
2017-Apr-18 00:30N 70°17' E 021°24'611.3
2017-Apr-17 23:59N 70°14' E 021°10'511.1
2017-Apr-17 23:30N 70°09' E 021°03'611.3
2017-Apr-17 23:00N 70°04' E 020°55'611.2
2017-Apr-17 22:30N 70°02' E 020°40'611.4
2017-Apr-17 22:00N 69°60' E 020°25'611.3
2017-Apr-17 21:30N 69°57' E 020°09'611.4
2017-Apr-17 20:59N 69°54' E 019°56'611.5
2017-Apr-17 20:30N 69°50' E 019°43'611.4
2017-Apr-17 20:00N 69°48' E 019°28'611.2
2017-Apr-17 19:30N 69°46' E 019°13'611.0
2017-Apr-17 19:00N 69°42' E 019°03'510.9
2017-Apr-17 18:30N 69°37' E 018°55'510.7
2017-Apr-17 18:00N 69°33' E 018°45'510.3
2017-Apr-17 17:30N 69°32' E 018°31'611.2
2017-Apr-17 17:00N 69°30' E 018°15'5 9.9
2017-Apr-17 16:30N 69°26' E 018°07'510.9
2017-Apr-17 16:00N 69°21' E 018°04'510.3
2017-Apr-17 15:30N 69°16' E 017°58'510.2
2017-Apr-17 15:00N 69°11' E 017°60'611.4
2017-Apr-17 14:30N 69°09' E 017°45'1111.0
2017-Apr-17 13:29N 69°02' E 017°19'611.4
2017-Apr-17 13:00N 68°58' E 017°09'611.3
2017-Apr-17 12:30N 68°54' E 016°59'611.2
2017-Apr-17 11:59N 68°49' E 016°51'611.3
2017-Apr-17 11:30N 68°44' E 016°44'611.5
2017-Apr-17 11:00N 68°39' E 016°36'611.0
2017-Apr-17 10:29N 68°34' E 016°31'510.3
2017-Apr-17 10:00N 68°33' E 016°17'510.8
2017-Apr-17 09:30N 68°29' E 016°07'611.4
2017-Apr-17 09:00N 68°24' E 016°01'611.3
2017-Apr-17 08:30N 68°19' E 015°53'611.2
2017-Apr-17 08:00N 68°15' E 015°42'611.3
2017-Apr-17 07:30N 68°11' E 015°31'611.0
2017-Apr-17 07:00N 68°08' E 015°19'611.3
2017-Apr-17 06:30N 68°04' E 015°08'611.2
2017-Apr-17 06:00N 68°00' E 014°58'611.1
2017-Apr-17 05:30N 67°56' E 014°48'510.6
2017-Apr-17 05:00N 67°51' E 014°41'611.2
2017-Apr-17 04:30N 67°47' E 014°30'611.4
2017-Apr-17 04:00N 67°42' E 014°31'611.5
2017-Apr-17 03:30N 67°36' E 014°30'611.3
2017-Apr-17 03:00N 67°30' E 014°29'611.6
2017-Apr-17 02:30N 67°25' E 014°27'611.0
2017-Apr-17 02:00N 67°20' E 014°20'611.2
2017-Apr-17 01:30N 67°15' E 014°11'611.5
2017-Apr-17 01:00N 67°10' E 014°03'611.5
2017-Apr-17 00:30N 67°05' E 013°56'611.4
2017-Apr-17 00:00N 67°01' E 013°45'611.6
2017-Apr-16 23:29N 66°59' E 013°31'611.8
2017-Apr-16 23:00N 66°57' E 013°18'611.9
2017-Apr-16 22:30N 66°53' E 013°06'611.6
2017-Apr-16 22:00N 66°50' E 012°53'611.1
2017-Apr-16 21:30N 66°45' E 012°47'611.1
2017-Apr-16 21:00N 66°40' E 012°41'611.6
2017-Apr-16 20:30N 66°34' E 012°42'611.4
2017-Apr-16 20:00N 66°29' E 012°40'5 9.5
2017-Apr-16 19:30N 66°24' E 012°42'611.3
2017-Apr-16 19:00N 66°19' E 012°39'611.6
2017-Apr-16 18:30N 66°13' E 012°39'611.9
2017-Apr-16 18:00N 66°07' E 012°40'611.3
2017-Apr-16 17:30N 66°02' E 012°34'611.5
2017-Apr-16 17:00N 65°57' E 012°25'611.5
2017-Apr-16 16:29N 65°51' E 012°22'611.5
2017-Apr-16 16:00N 65°46' E 012°18'511.2
2017-Apr-16 15:30N 65°41' E 012°14'611.1
2017-Apr-16 15:00N 65°36' E 012°09'611.3
2017-Apr-16 14:29N 65°31' E 012°00'10 9.9
2017-Apr-16 13:30N 65°21' E 012°04'611.4
2017-Apr-16 13:00N 65°17' E 011°57'611.3
2017-Apr-16 12:30N 65°12' E 011°48'611.5
2017-Apr-16 12:00N 65°10' E 011°36'611.8
2017-Apr-16 11:30N 65°05' E 011°27'510.7
2017-Apr-16 11:00N 65°00' E 011°23'611.6
2017-Apr-16 10:30N 64°54' E 011°21'612.1
2017-Apr-16 10:00N 64°50' E 011°11'611.4
2017-Apr-16 09:30N 64°46' E 011°01'611.3
2017-Apr-16 08:59N 64°42' E 010°51'611.1
2017-Apr-16 08:30N 64°38' E 010°43'611.4
2017-Apr-16 08:00N 64°33' E 010°35'611.5
2017-Apr-16 07:30N 64°29' E 010°27'611.3
2017-Apr-16 07:00N 64°23' E 010°25'611.3
2017-Apr-16 06:30N 64°18' E 010°20'510.2
2017-Apr-16 06:00N 64°14' E 010°14'  

Dump ship's entire track history